Terminal Aerodrome Forecast
Issued by NWS

Home | Current Version | Previous Version | Text Only | Print | Product List | Glossary On
Versions: 1 2 3 4 5 6 7 8 9 10 11 12 13 14 15 16 17
000
FTUS44 KCRP 211700
TAFALI
TAF
KALI 211734Z 2118/2218 06005KT P6SM OVC008
     FM212100 10007KT P6SM BKN015 OVC030
     FM220200 VRB04KT 5SM BR OVC015
     FM220800 19004KT 2SM BR OVC004
     FM221000 VRB03KT 3/4SM BR OVC002
      TEMPO 2210/2214 1/2SM FG OVC001
     FM221530 20006KT 2SM BR SCT008
     FM221630 21009KT P6SM SCT015=

USA.gov is the U.S. government's official web portal to all federal, state and local government web resources and services.